Time,TemperatureF,DewpointF,PressureIn,WindDirection,WindDirectionDegrees,WindSpeedMPH,WindSpeedGustMPH,Humidity,HourlyPrecipIn,Conditions,Clouds,dailyrainin,SoftwareType,DateUTC
2013-04-30 00:01:00,52.0,50.0,30.02,WSW,250,0.0,-999.0,92,-99.99,,,0.00,weatherlink.com 1.10,2013-04-30 04:01:00,
2013-04-30 00:16:00,51.5,50.0,30.02,WSW,250,0.0,-999.0,93,-99.99,,,0.00,weatherlink.com 1.10,2013-04-30 04:16:00,
2013-04-30 00:31:00,51.2,49.0,30.02,WSW,250,0.0,-999.0,93,-99.99,,,0.00,weatherlink.com 1.10,2013-04-30 04:31:00,
2013-04-30 00:46:00,51.1,49.0,30.02,WSW,250,0.0,-999.0,93,-99.99,,,0.00,weatherlink.com 1.10,2013-04-30 04:46:00,
2013-04-30 01:01:00,50.9,49.0,30.02,WSW,250,0.0,-999.0,93,-99.99,,,0.00,weatherlink.com 1.10,2013-04-30 05:01:00,
2013-04-30 01:16:00,50.6,49.0,30.02,WSW,250,0.0,-999.0,93,-99.99,,,0.00,weatherlink.com 1.10,2013-04-30 05:16:00,
2013-04-30 01:31:00,50.2,48.0,30.02,WSW,250,0.0,-999.0,93,-99.99,,,0.00,weatherlink.com 1.10,2013-04-30 05:31:00,
2013-04-30 01:46:00,49.8,48.0,30.01,WSW,250,0.0,-999.0,93,-99.99,,,0.00,weatherlink.com 1.10,2013-04-30 05:46:00,
2013-04-30 02:01:00,49.4,48.0,30.01,WSW,250,0.0,-999.0,93,-99.99,,,0.00,weatherlink.com 1.10,2013-04-30 06:01:00,
2013-04-30 02:16:00,49.1,47.0,30.01,WSW,250,0.0,-999.0,93,-99.99,,,0.00,weatherlink.com 1.10,2013-04-30 06:16:00,
2013-04-30 02:32:00,48.7,47.0,30.01,WSW,250,0.0,-999.0,94,-99.99,,,0.00,weatherlink.com 1.10,2013-04-30 06:32:00,
2013-04-30 02:46:00,48.5,47.0,30.01,WSW,250,0.0,-999.0,94,-99.99,,,0.00,weatherlink.com 1.10,2013-04-30 06:46:00,
2013-04-30 03:01:00,48.3,47.0,30.01,WSW,250,0.0,-999.0,94,-99.99,,,0.00,weatherlink.com 1.10,2013-04-30 07:01:00,
2013-04-30 03:16:00,47.9,46.0,30.01,WSW,250,0.0,-999.0,94,-99.99,,,0.00,weatherlink.com 1.10,2013-04-30 07:16:00,
2013-04-30 03:31:00,47.6,46.0,30.01,WSW,250,0.0,-999.0,94,-99.99,,,0.00,weatherlink.com 1.10,2013-04-30 07:31:00,
2013-04-30 03:46:00,47.2,46.0,30.01,WSW,250,0.0,-999.0,94,-99.99,,,0.00,weatherlink.com 1.10,2013-04-30 07:46:00,
2013-04-30 04:02:00,47.1,46.0,30.01,WSW,250,0.0,-999.0,94,-99.99,,,0.00,weatherlink.com 1.10,2013-04-30 08:02:00,
2013-04-30 04:17:00,47.0,45.0,30.01,WSW,250,0.0,-999.0,94,-99.99,,,0.00,weatherlink.com 1.10,2013-04-30 08:17:00,
2013-04-30 04:32:00,47.0,45.0,30.01,WSW,250,0.0,-999.0,94,-99.99,,,0.00,weatherlink.com 1.10,2013-04-30 08:32:00,
2013-04-30 04:47:00,47.0,45.0,30.01,WSW,250,0.0,-999.0,94,-99.99,,,0.00,weatherlink.com 1.10,2013-04-30 08:47:00,
2013-04-30 05:02:00,46.9,45.0,30.02,WSW,250,0.0,-999.0,94,-99.99,,,0.00,weatherlink.com 1.10,2013-04-30 09:02:00,
2013-04-30 05:17:00,46.9,45.0,30.02,WSW,250,0.0,-999.0,94,-99.99,,,0.00,weatherlink.com 1.10,2013-04-30 09:17:00,
2013-04-30 05:32:00,46.8,45.0,30.02,WSW,250,0.0,-999.0,94,-99.99,,,0.00,weatherlink.com 1.10,2013-04-30 09:32:00,
2013-04-30 05:47:00,46.7,45.0,30.02,WSW,250,0.0,-999.0,94,-99.99,,,0.00,weatherlink.com 1.10,2013-04-30 09:47:00,
2013-04-30 06:02:00,47.0,46.0,30.03,WSW,247,1.0,-999.0,95,-99.99,,,0.00,weatherlink.com 1.10,2013-04-30 10:02:00,
2013-04-30 06:17:00,47.3,46.0,30.04,WSW,247,0.0,-999.0,95,-99.99,,,0.00,weatherlink.com 1.10,2013-04-30 10:17:00,
2013-04-30 06:32:00,47.0,45.0,30.05,WSW,247,0.0,-999.0,94,-99.99,,,0.00,weatherlink.com 1.10,2013-04-30 10:32:00,
2013-04-30 06:47:00,46.5,45.0,30.05,WSW,246,0.0,-999.0,94,-99.99,,,0.00,weatherlink.com 1.10,2013-04-30 10:47:00,
2013-04-30 07:02:00,47.8,47.0,30.06,SW,231,0.0,-999.0,95,-99.99,,,0.00,weatherlink.com 1.10,2013-04-30 11:02:00,
2013-04-30 07:17:00,47.4,46.0,30.06,SW,231,0.0,-999.0,95,-99.99,,,0.00,weatherlink.com 1.10,2013-04-30 11:17:00,
2013-04-30 07:32:00,49.0,48.0,30.07,SW,231,0.0,-999.0,95,-99.99,,,0.00,weatherlink.com 1.10,2013-04-30 11:32:00,
2013-04-30 07:47:00,50.8,50.0,30.07,SW,230,0.0,-999.0,95,-99.99,,,0.00,weatherlink.com 1.10,2013-04-30 11:47:00,
2013-04-30 08:02:00,52.6,52.0,30.08,SW,230,0.0,-999.0,96,-99.99,,,0.00,weatherlink.com 1.10,2013-04-30 12:02:00,
2013-04-30 08:17:00,54.0,53.0,30.08,SW,228,3.0,-999.0,96,-99.99,,,0.00,weatherlink.com 1.10,2013-04-30 12:17:00,
2013-04-30 08:32:00,55.3,54.0,30.08,SSW,205,0.0,-999.0,96,-99.99,,,0.00,weatherlink.com 1.10,2013-04-30 12:32:00,
2013-04-30 08:47:00,56.9,56.0,30.08,SSW,205,1.0,-999.0,96,-99.99,,,0.00,weatherlink.com 1.10,2013-04-30 12:47:00,
2013-04-30 09:02:00,58.0,55.0,30.09,SSW,197,1.0,-999.0,91,-99.99,,,0.00,weatherlink.com 1.10,2013-04-30 13:02:00,
2013-04-30 09:17:00,59.5,56.0,30.09,South,178,2.0,-999.0,87,-99.99,,,0.00,weatherlink.com 1.10,2013-04-30 13:17:00,
2013-04-30 09:32:00,61.3,57.0,30.09,South,171,0.0,-999.0,86,-99.99,,,0.00,weatherlink.com 1.10,2013-04-30 13:32:00,
2013-04-30 09:47:00,62.9,57.0,30.09,South,171,0.0,-999.0,81,-99.99,,,0.00,weatherlink.com 1.10,2013-04-30 13:47:00,
2013-04-30 10:02:00,64.2,58.0,30.09,East,101,0.0,-999.0,79,-99.99,,,0.00,weatherlink.com 1.10,2013-04-30 14:02:00,
2013-04-30 10:18:00,66.6,59.0,30.08,East,101,0.0,-999.0,77,-99.99,,,0.00,weatherlink.com 1.10,2013-04-30 14:18:00,
2013-04-30 10:33:00,68.1,59.0,30.09,SSE,161,0.0,-999.0,72,-99.99,,,0.00,weatherlink.com 1.10,2013-04-30 14:33:00,
2013-04-30 10:48:00,69.4,60.0,30.09,SSE,163,0.0,-999.0,71,-99.99,,,0.00,weatherlink.com 1.10,2013-04-30 14:48:00,
2013-04-30 11:03:00,70.0,59.0,30.09,West,275,0.0,-999.0,69,-99.99,,,0.00,weatherlink.com 1.10,2013-04-30 15:03:00,
2013-04-30 11:18:00,70.7,60.0,30.08,West,275,3.0,-999.0,70,-99.99,,,0.00,weatherlink.com 1.10,2013-04-30 15:18:00,
2013-04-30 11:33:00,72.1,58.0,30.08,West,275,4.0,-999.0,61,-99.99,,,0.00,weatherlink.com 1.10,2013-04-30 15:33:00,
2013-04-30 11:48:00,72.9,59.0,30.08,WSW,245,1.0,-999.0,61,-99.99,,,0.00,weatherlink.com 1.10,2013-04-30 15:48:00,
2013-04-30 12:03:00,73.0,58.0,30.07,NW,325,4.0,-999.0,60,-99.99,,,0.00,weatherlink.com 1.10,2013-04-30 16:03:00,
2013-04-30 12:18:00,73.6,57.0,30.07,WNW,303,4.0,-999.0,56,-99.99,,,0.00,weatherlink.com 1.10,2013-04-30 16:18:00,
2013-04-30 12:33:00,73.7,55.0,30.07,West,277,6.0,-999.0,52,-99.99,,,0.00,weatherlink.com 1.10,2013-04-30 16:33:00,
2013-04-30 12:48:00,74.4,57.0,30.06,West,270,5.0,-999.0,55,-99.99,,,0.00,weatherlink.com 1.10,2013-04-30 16:48:00,
2013-04-30 13:03:00,75.2,56.0,30.06,WSW,258,5.0,-999.0,51,-99.99,,,0.00,weatherlink.com 1.10,2013-04-30 17:03:00,
2013-04-30 13:18:00,75.7,57.0,30.05,SW,231,2.0,-999.0,52,-99.99,,,0.00,weatherlink.com 1.10,2013-04-30 17:18:00,
2013-04-30 13:33:00,75.8,53.0,30.05,ESE,112,0.0,-999.0,46,-99.99,,,0.00,weatherlink.com 1.10,2013-04-30 17:33:00,
2013-04-30 13:48:00,76.3,56.0,30.05,WNW,292,0.0,-999.0,49,-99.99,,,0.00,weatherlink.com 1.10,2013-04-30 17:48:00,
2013-04-30 14:03:00,76.4,55.0,30.05,North,351,0.0,-999.0,48,-99.99,,,0.00,weatherlink.com 1.10,2013-04-30 18:03:00,
2013-04-30 14:18:00,75.9,55.0,30.05,ESE,109,0.0,-999.0,49,-99.99,,,0.00,weatherlink.com 1.10,2013-04-30 18:18:00,
2013-04-30 14:33:00,76.0,54.0,30.05,ESE,109,0.0,-999.0,47,-99.99,,,0.00,weatherlink.com 1.10,2013-04-30 18:33:00,
2013-04-30 14:48:00,76.9,55.0,30.04,South,178,0.0,-999.0,47,-99.99,,,0.00,weatherlink.com 1.10,2013-04-30 18:48:00,
2013-04-30 15:03:00,77.4,55.0,30.04,ENE,75,5.0,-999.0,46,-99.99,,,0.00,weatherlink.com 1.10,2013-04-30 19:03:00,
2013-04-30 15:18:00,78.1,56.0,30.04,North,360,4.0,-999.0,46,-99.99,,,0.00,weatherlink.com 1.10,2013-04-30 19:18:00,
2013-04-30 15:33:00,78.6,58.0,30.04,NNW,345,4.0,-999.0,49,-99.99,,,0.00,weatherlink.com 1.10,2013-04-30 19:33:00,
2013-04-30 15:48:00,79.0,57.0,30.03,North,351,2.0,-999.0,47,-99.99,,,0.00,weatherlink.com 1.10,2013-04-30 19:48:00,
2013-04-30 16:03:00,79.5,56.0,30.02,NE,54,3.0,-999.0,44,-99.99,,,0.00,weatherlink.com 1.10,2013-04-30 20:03:00,
2013-04-30 16:18:00,78.5,53.0,30.02,East,80,1.0,-999.0,42,-99.99,,,0.00,weatherlink.com 1.10,2013-04-30 20:18:00,
2013-04-30 16:33:00,79.2,53.0,30.01,SSW,205,6.0,-999.0,40,-99.99,,,0.00,weatherlink.com 1.10,2013-04-30 20:33:00,
2013-04-30 16:48:00,80.2,56.0,30.01,ESE,122,4.0,-999.0,44,-99.99,,,0.00,weatherlink.com 1.10,2013-04-30 20:48:00,
2013-04-30 17:03:00,80.2,54.0,30.01,East,86,2.0,-999.0,41,-99.99,,,0.00,weatherlink.com 1.10,2013-04-30 21:03:00,
2013-04-30 17:18:00,79.8,54.0,30.01,ENE,69,1.0,-999.0,41,-99.99,,,0.00,weatherlink.com 1.10,2013-04-30 21:18:00,
2013-04-30 17:33:00,79.9,53.0,30.01,East,94,0.0,-999.0,40,-99.99,,,0.00,weatherlink.com 1.10,2013-04-30 21:33:00,
2013-04-30 17:48:00,80.3,53.0,30.02,SE,130,0.0,-999.0,39,-99.99,,,0.00,weatherlink.com 1.10,2013-04-30 21:48:00,
2013-04-30 18:04:00,80.6,52.0,30.02,East,95,1.0,-999.0,37,-99.99,,,0.00,weatherlink.com 1.10,2013-04-30 22:04:00,
2013-04-30 18:19:00,80.4,52.0,30.02,ESE,109,5.0,-999.0,37,-99.99,,,0.00,weatherlink.com 1.10,2013-04-30 22:19:00,
2013-04-30 18:34:00,80.3,51.0,30.02,SE,145,0.0,-999.0,36,-99.99,,,0.00,weatherlink.com 1.10,2013-04-30 22:34:00,
2013-04-30 18:49:00,80.4,52.0,30.02,ESE,121,0.0,-999.0,37,-99.99,,,0.00,weatherlink.com 1.10,2013-04-30 22:49:00,
2013-04-30 19:04:00,80.1,51.0,30.02,ESE,121,0.0,-999.0,37,-99.99,,,0.00,weatherlink.com 1.10,2013-04-30 23:04:00,
2013-04-30 19:19:00,79.8,54.0,30.02,ESE,121,0.0,-999.0,41,-99.99,,,0.00,weatherlink.com 1.10,2013-04-30 23:19:00,
2013-04-30 19:34:00,79.6,54.0,30.03,ESE,121,0.0,-999.0,42,-99.99,,,0.00,weatherlink.com 1.10,2013-04-30 23:34:00,
2013-04-30 19:49:00,78.4,55.0,30.03,ESE,121,0.0,-999.0,45,-99.99,,,0.00,weatherlink.com 1.10,2013-04-30 23:49:00,
2013-04-30 20:04:00,76.4,55.0,30.04,ESE,121,0.0,-999.0,48,-99.99,,,0.00,weatherlink.com 1.10,2013-05-01 00:04:00,
2013-04-30 20:19:00,73.9,55.0,30.04,ESE,121,0.0,-999.0,52,-99.99,,,0.00,weatherlink.com 1.10,2013-05-01 00:19:00,
2013-04-30 20:34:00,71.5,55.0,30.05,ESE,121,0.0,-999.0,56,-99.99,,,0.00,weatherlink.com 1.10,2013-05-01 00:34:00,
2013-04-30 20:49:00,69.5,55.0,30.05,ESE,121,0.0,-999.0,61,-99.99,,,0.00,weatherlink.com 1.10,2013-05-01 00:49:00,
2013-04-30 21:04:00,67.8,55.0,30.05,ESE,121,0.0,-999.0,64,-99.99,,,0.00,weatherlink.com 1.10,2013-05-01 01:04:00,
2013-04-30 21:19:00,66.1,55.0,30.06,ESE,121,0.0,-999.0,68,-99.99,,,0.00,weatherlink.com 1.10,2013-05-01 01:19:00,
2013-04-30 21:34:00,64.3,56.0,30.06,ESE,121,0.0,-999.0,74,-99.99,,,0.00,weatherlink.com 1.10,2013-05-01 01:34:00,
2013-04-30 21:49:00,63.1,55.0,30.07,ESE,121,0.0,-999.0,76,-99.99,,,0.00,weatherlink.com 1.10,2013-05-01 01:49:00,
2013-04-30 22:04:00,62.9,55.0,30.07,ESE,121,0.0,-999.0,76,-99.99,,,0.00,weatherlink.com 1.10,2013-05-01 02:04:00,
2013-04-30 22:19:00,61.9,55.0,30.08,ESE,121,0.0,-999.0,78,-99.99,,,0.00,weatherlink.com 1.10,2013-05-01 02:19:00,
2013-04-30 22:34:00,61.2,55.0,30.08,ESE,121,0.0,-999.0,79,-99.99,,,0.00,weatherlink.com 1.10,2013-05-01 02:34:00,
2013-04-30 22:49:00,60.5,55.0,30.08,ESE,121,0.0,-999.0,81,-99.99,,,0.00,weatherlink.com 1.10,2013-05-01 02:49:00,
2013-04-30 23:04:00,59.8,55.0,30.09,ESE,121,0.0,-999.0,83,-99.99,,,0.00,weatherlink.com 1.10,2013-05-01 03:04:00,
2013-04-30 23:19:00,59.5,55.0,30.08,ESE,121,0.0,-999.0,84,-99.99,,,0.00,weatherlink.com 1.10,2013-05-01 03:19:00,
2013-04-30 23:34:00,59.1,54.0,30.08,ESE,121,0.0,-999.0,84,-99.99,,,0.00,weatherlink.com 1.10,2013-05-01 03:34:00,
2013-04-30 23:49:00,58.6,54.0,30.08,ESE,121,0.0,-999.0,85,-99.99,,,0.00,weatherlink.com 1.10,2013-05-01 03:49:00,